createdAt,value
2017-12-29T00:02:19.459Z,244.00
2017-12-29T00:18:04.005Z,208.20
2017-12-29T01:16:40.289Z,172.00
2017-12-29T01:41:23.244Z,176.00
2017-12-29T02:18:20.950Z,173.00
2017-12-29T02:21:16.729Z,174.00
2017-12-29T02:27:23.043Z,178.50
2017-12-29T02:30:14.822Z,257.00
2017-12-29T02:33:07.979Z,189.67
2017-12-29T02:35:47.558Z,188.50
2017-12-29T02:44:30.934Z,168.00
2017-12-29T02:47:18.087Z,211.00
2017-12-29T02:50:07.433Z,164.33
2017-12-29T02:52:58.715Z,159.50
2017-12-29T02:56:00.045Z,217.33
2017-12-29T02:58:41.024Z,183.67
2017-12-29T03:12:17.559Z,185.50
2017-12-29T03:14:55.496Z,204.00
2017-12-29T03:17:43.220Z,205.83
2017-12-29T03:20:18.175Z,176.67
2017-12-29T03:22:56.608Z,182.17
2017-12-29T03:25:36.391Z,193.67
2017-12-29T03:28:11.118Z,165.50
2017-12-29T03:30:49.484Z,187.00
2017-12-29T03:33:23.046Z,188.00
2017-12-29T03:35:56.188Z,186.00
2017-12-29T03:38:30.612Z,218.33
2017-12-29T03:41:04.470Z,239.00
2017-12-29T03:43:43.174Z,206.17
2017-12-29T03:46:20.304Z,181.25
2017-12-29T03:48:54.790Z,191.00
2017-12-29T03:51:37.808Z,247.00
2017-12-29T03:54:14.981Z,256.40
2017-12-29T03:56:52.931Z,218.83
2017-12-29T03:59:30.365Z,253.25
2017-12-29T04:02:09.149Z,263.67
2017-12-29T04:04:46.531Z,219.00
2017-12-29T04:07:24.091Z,253.40
2017-12-29T04:09:58.964Z,224.00
2017-12-29T04:12:37.652Z,275.60
2017-12-29T04:15:16.047Z,294.00
2017-12-29T04:17:52.867Z,310.00
2017-12-29T04:20:29.282Z,261.20
2017-12-29T04:23:03.078Z,259.20
2017-12-29T04:25:39.774Z,195.83
2017-12-29T04:28:17.491Z,268.00
2017-12-29T04:30:49.546Z,213.00
2017-12-29T04:33:25.429Z,179.87
2017-12-29T04:36:02.656Z,278.80
2017-12-29T04:38:39.066Z,235.83
2017-12-29T04:41:17.215Z,229.60
2017-12-29T04:43:55.837Z,245.50
2017-12-29T04:46:32.358Z,294.40
2017-12-29T04:49:08.780Z,306.40
2017-12-29T04:51:43.629Z,262.00
2017-12-29T04:54:20.176Z,335.17
2017-12-29T04:56:59.602Z,315.50
2017-12-29T04:59:36.387Z,270.20
2017-12-29T05:02:21.684Z,295.33
2017-12-29T05:05:02.474Z,268.80
2017-12-29T05:07:38.632Z,245.40
2017-12-29T05:10:18.140Z,293.00
2017-12-29T05:12:55.020Z,321.50
2017-12-29T05:15:31.054Z,346.00
2017-12-29T05:18:08.593Z,286.40
2017-12-29T05:20:44.312Z,288.80
2017-12-29T05:23:29.244Z,256.00
2017-12-29T05:26:06.079Z,303.67
2017-12-29T05:28:42.687Z,254.40
2017-12-29T05:31:20.227Z,279.83
2017-12-29T05:33:56.010Z,261.80
2017-12-29T05:36:32.283Z,344.00
2017-12-29T05:39:10.108Z,351.20
2017-12-29T05:41:46.344Z,351.00
2017-12-29T05:44:25.535Z,345.80
2017-12-29T05:47:13.610Z,333.00
2017-12-29T05:49:50.491Z,352.67
2017-12-29T05:52:28.147Z,329.83
2017-12-29T05:55:04.737Z,310.67
2017-12-29T05:57:41.539Z,325.50
2017-12-29T06:00:19.249Z,287.40
2017-12-29T06:02:55.215Z,336.20
2017-12-29T06:05:33.036Z,312.50
2017-12-29T06:08:11.872Z,307.17
2017-12-29T06:10:48.419Z,284.40
2017-12-29T06:13:25.952Z,301.67
2017-12-29T06:16:02.586Z,292.50
2017-12-29T06:18:39.137Z,295.83
2017-12-29T06:21:15.104Z,279.60
2017-12-29T06:23:50.934Z,286.40
2017-12-29T06:26:28.108Z,277.80
2017-12-29T06:29:04.030Z,265.80
2017-12-29T06:31:39.791Z,237.60
2017-12-29T06:34:17.160Z,170.60
2017-12-29T06:36:50.424Z,114.50
2017-12-29T06:39:23.596Z,78.25
2017-12-29T06:41:56.273Z,73.00
2017-12-29T06:44:28.083Z,71.00
2017-12-29T06:47:01.544Z,68.00
2017-12-29T06:49:33.663Z,66.67
2017-12-29T06:52:05.982Z,65.33
2017-12-29T06:54:39.902Z,97.25
2017-12-29T06:57:13.171Z,142.50
2017-12-29T06:59:46.859Z,147.75
2017-12-29T07:02:20.134Z,147.25
2017-12-29T07:04:53.342Z,131.75
2017-12-29T07:07:28.480Z,127.00
2017-12-29T07:10:01.804Z,148.00
2017-12-29T07:12:35.168Z,137.25
2017-12-29T07:15:09.617Z,148.75
2017-12-29T07:17:43.049Z,141.25
2017-12-29T07:20:16.367Z,132.00
2017-12-29T07:22:51.796Z,134.75
2017-12-29T07:25:24.649Z,146.00
2017-12-29T07:27:58.075Z,132.00
2017-12-29T07:30:32.748Z,135.50
2017-12-29T07:33:05.566Z,119.50
2017-12-29T07:35:39.044Z,131.75
2017-12-29T07:38:12.964Z,129.00
2017-12-29T07:40:46.037Z,114.75
2017-12-29T07:43:19.148Z,127.25
2017-12-29T07:45:51.802Z,96.00
2017-12-29T07:48:24.862Z,120.00
2017-12-29T07:50:58.410Z,109.25
2017-12-29T07:53:31.842Z,125.50
2017-12-29T07:56:04.722Z,125.50
2017-12-29T07:58:38.356Z,117.25
2017-12-29T08:01:12.773Z,120.25
2017-12-29T08:03:47.598Z,121.50
2017-12-29T08:06:23.425Z,100.50
2017-12-29T08:08:56.823Z,81.25
2017-12-29T08:11:30.669Z,97.25
2017-12-29T08:16:40.628Z,108.00
2017-12-29T08:19:14.087Z,101.00
2017-12-29T08:21:47.951Z,106.50
2017-12-29T08:24:20.825Z,98.67
2017-12-29T08:26:53.866Z,86.50
2017-12-29T08:29:28.180Z,84.75
2017-12-29T08:32:01.832Z,104.25
2017-12-29T08:34:36.058Z,88.50
2017-12-29T08:37:09.677Z,107.25
2017-12-29T08:39:42.406Z,101.00
2017-12-29T08:42:15.148Z,81.00
2017-12-29T08:44:48.263Z,98.00
2017-12-29T08:47:21.318Z,92.50
2017-12-29T08:49:54.367Z,92.75
2017-12-29T08:52:27.759Z,90.50
2017-12-29T08:54:59.795Z,77.33
2017-12-29T08:57:46.270Z,102.25
2017-12-29T09:00:26.636Z,81.50
2017-12-29T09:05:27.610Z,96.50
2017-12-29T09:07:59.907Z,79.33
2017-12-29T09:10:33.498Z,85.75
2017-12-29T09:13:06.180Z,82.00
2017-12-29T09:15:39.685Z,78.67
2017-12-29T09:18:18.849Z,70.67
2017-12-29T09:20:51.627Z,77.67
2017-12-29T09:23:24.400Z,66.00
2017-12-29T09:25:56.631Z,68.33
2017-12-29T09:28:30.384Z,66.00
2017-12-29T09:31:03.092Z,66.33
2017-12-29T09:33:35.837Z,70.00
2017-12-29T09:36:09.528Z,72.00
2017-12-29T09:38:42.530Z,64.33
2017-12-29T09:41:15.850Z,61.67
2017-12-29T09:43:48.369Z,62.00
2017-12-29T09:46:21.273Z,67.33
2017-12-29T09:49:08.760Z,68.67
2017-12-29T09:51:43.063Z,68.33
2017-12-29T09:54:47.463Z,65.00
2017-12-29T10:09:42.379Z,65.00
2017-12-29T10:15:52.417Z,70.50
2017-12-29T10:21:25.996Z,61.33
2017-12-29T10:24:28.038Z,62.67
2017-12-29T10:27:11.359Z,63.33
2017-12-29T10:39:05.967Z,65.00
2017-12-29T10:41:51.546Z,65.67
2017-12-29T10:44:39.783Z,61.00
2017-12-29T10:47:14.007Z,59.67
2017-12-29T10:52:32.638Z,59.00
2017-12-29T10:55:09.812Z,57.33
2017-12-29T10:57:46.082Z,61.67
2017-12-29T11:00:30.013Z,59.00
2017-12-29T11:03:08.167Z,57.33
2017-12-29T11:09:02.934Z,50.67
2017-12-29T11:11:47.706Z,41.67
2017-12-29T11:14:22.679Z,45.00
2017-12-29T11:17:04.473Z,52.33
2017-12-29T11:19:37.634Z,49.00
2017-12-29T11:22:15.706Z,44.00
2017-12-29T11:25:00.737Z,43.75
2017-12-29T11:27:41.931Z,49.00
2017-12-29T11:35:25.747Z,44.33
2017-12-29T11:44:29.999Z,47.33
2017-12-29T11:47:07.979Z,50.67
2017-12-29T11:49:49.469Z,51.67
2017-12-29T11:52:28.283Z,49.67
2017-12-29T11:55:19.612Z,51.00
2017-12-29T11:58:03.993Z,54.00
2017-12-29T12:00:50.802Z,50.33
2017-12-29T12:03:39.898Z,50.00
2017-12-29T12:06:41.207Z,53.67
2017-12-29T12:09:19.923Z,52.67
2017-12-29T12:18:02.585Z,44.33
2017-12-29T12:20:52.134Z,46.67
2017-12-29T12:23:42.623Z,42.33
2017-12-29T12:27:03.447Z,46.67
2017-12-29T12:39:12.886Z,49.00
2017-12-29T12:45:38.531Z,48.00
2017-12-29T12:48:23.639Z,46.00
2017-12-29T12:54:48.941Z,47.67
2017-12-29T12:57:48.446Z,42.33
2017-12-29T13:00:42.790Z,43.67
2017-12-29T13:03:24.664Z,39.33
2017-12-29T13:27:17.095Z,49.33
2017-12-29T13:35:50.914Z,33.00
2017-12-29T13:51:03.981Z,37.67
2017-12-29T14:12:56.925Z,46.00
2017-12-29T14:33:46.609Z,45.75
2017-12-29T14:45:56.869Z,34.00
2017-12-29T14:49:47.438Z,39.67
2017-12-29T14:56:10.661Z,35.33
2017-12-29T15:05:53.700Z,39.00
2017-12-29T15:18:13.467Z,38.50
2017-12-29T15:21:03.509Z,41.25
2017-12-29T15:24:00.329Z,39.67
2017-12-29T15:30:10.496Z,35.67
2017-12-29T15:53:20.524Z,36.67
2017-12-29T17:30:40.822Z,33.67
2017-12-29T17:33:51.206Z,36.33
2017-12-29T17:37:55.574Z,32.33
2017-12-29T17:40:53.124Z,33.67
2017-12-29T17:44:27.491Z,28.67
2017-12-29T18:08:44.868Z,31.67
2017-12-29T21:41:22.458Z,63.33
2017-12-29T21:51:19.266Z,56.00
2017-12-29T22:00:22.475Z,56.67
2017-12-29T22:06:44.642Z,63.00
2017-12-29T22:09:54.300Z,63.67
2017-12-29T22:12:38.674Z,68.00
2017-12-29T22:15:27.481Z,70.00
2017-12-29T22:18:37.416Z,64.75
2017-12-29T22:24:35.397Z,80.33
2017-12-29T22:27:26.078Z,76.00
2017-12-29T22:36:49.766Z,111.00
2017-12-29T22:40:05.861Z,106.25
2017-12-29T22:45:39.804Z,86.75
2017-12-29T22:48:33.590Z,95.50
2017-12-29T22:51:15.760Z,73.67
2017-12-29T22:54:03.895Z,83.00
